sensor_id;sensor_type;location;lat;lon;timestamp;P1;durP1;ratioP1;P2;durP2;ratioP2
67191;SDS011;54120;53.504;49.426;2023-05-08T00:02:19;7.97;;;4.57;;
67191;SDS011;54120;53.504;49.426;2023-05-08T00:04:49;10.25;;;3.72;;
67191;SDS011;54120;53.504;49.426;2023-05-08T00:10:12;11.00;;;3.88;;
67191;SDS011;54120;53.504;49.426;2023-05-08T00:15:34;11.98;;;3.38;;
67191;SDS011;54120;53.504;49.426;2023-05-08T00:26:57;12.32;;;5.05;;
67191;SDS011;54120;53.504;49.426;2023-05-08T00:29:31;6.90;;;4.85;;
67191;SDS011;54120;53.504;49.426;2023-05-08T00:32:07;6.97;;;5.22;;
67191;SDS011;54120;53.504;49.426;2023-05-08T00:34:34;8.48;;;4.88;;
67191;SDS011;54120;53.504;49.426;2023-05-08T00:43:06;7.07;;;4.10;;
67191;SDS011;54120;53.504;49.426;2023-05-08T00:48:39;9.82;;;3.70;;
67191;SDS011;54120;53.504;49.426;2023-05-08T00:56:44;6.75;;;3.05;;
67191;SDS011;54120;53.504;49.426;2023-05-08T01:01:59;8.70;;;4.18;;
67191;SDS011;54120;53.504;49.426;2023-05-08T01:29:15;13.55;;;4.93;;
67191;SDS011;54120;53.504;49.426;2023-05-08T01:41:15;10.70;;;4.95;;
67191;SDS011;54120;53.504;49.426;2023-05-08T01:44:03;16.83;;;4.88;;
67191;SDS011;54120;53.504;49.426;2023-05-08T01:46:44;11.68;;;4.63;;
67191;SDS011;54120;53.504;49.426;2023-05-08T01:49:29;13.23;;;4.70;;
67191;SDS011;54120;53.504;49.426;2023-05-08T01:58:32;7.30;;;4.03;;
67191;SDS011;54120;53.504;49.426;2023-05-08T02:03:56;4.57;;;2.92;;
67191;SDS011;54120;53.504;49.426;2023-05-08T02:09:31;3.80;;;2.88;;
67191;SDS011;54120;53.504;49.426;2023-05-08T02:15:03;26.53;;;2.80;;
67191;SDS011;54120;53.504;49.426;2023-05-08T02:23:56;2.42;;;2.13;;
67191;SDS011;54120;53.504;49.426;2023-05-08T02:42:11;6.00;;;3.15;;
67191;SDS011;54120;53.504;49.426;2023-05-08T02:44:37;6.93;;;3.55;;
67191;SDS011;54120;53.504;49.426;2023-05-08T02:47:07;8.10;;;3.38;;
67191;SDS011;54120;53.504;49.426;2023-05-08T02:49:51;6.88;;;3.45;;
67191;SDS011;54120;53.504;49.426;2023-05-08T02:52:28;9.45;;;3.88;;
67191;SDS011;54120;53.504;49.426;2023-05-08T02:55:01;8.52;;;5.07;;
67191;SDS011;54120;53.504;49.426;2023-05-08T03:00:36;15.68;;;7.85;;
67191;SDS011;54120;53.504;49.426;2023-05-08T03:03:20;9.90;;;5.60;;
67191;SDS011;54120;53.504;49.426;2023-05-08T03:05:51;10.27;;;4.25;;
67191;SDS011;54120;53.504;49.426;2023-05-08T03:08:23;9.35;;;4.75;;
67191;SDS011;54120;53.504;49.426;2023-05-08T03:11:10;14.80;;;7.68;;
67191;SDS011;54120;53.504;49.426;2023-05-08T03:13:42;14.32;;;7.38;;
67191;SDS011;54120;53.504;49.426;2023-05-08T03:16:23;11.82;;;6.65;;
67191;SDS011;54120;53.504;49.426;2023-05-08T03:19:00;13.82;;;5.68;;
67191;SDS011;54120;53.504;49.426;2023-05-08T03:21:35;9.35;;;5.30;;
67191;SDS011;54120;53.504;49.426;2023-05-08T03:24:07;13.13;;;5.07;;
67191;SDS011;54120;53.504;49.426;2023-05-08T03:29:49;8.32;;;4.68;;
67191;SDS011;54120;53.504;49.426;2023-05-08T03:32:17;8.05;;;4.07;;
67191;SDS011;54120;53.504;49.426;2023-05-08T03:34:44;10.10;;;4.32;;
67191;SDS011;54120;53.504;49.426;2023-05-08T03:37:11;7.93;;;3.65;;
67191;SDS011;54120;53.504;49.426;2023-05-08T03:39:39;9.55;;;3.22;;
67191;SDS011;54120;53.504;49.426;2023-05-08T03:42:05;4.18;;;2.67;;
67191;SDS011;54120;53.504;49.426;2023-05-08T03:44:32;5.20;;;1.95;;
67191;SDS011;54120;53.504;49.426;2023-05-08T03:46:59;2.80;;;2.33;;
67191;SDS011;54120;53.504;49.426;2023-05-08T03:49:27;5.53;;;2.72;;
67191;SDS011;54120;53.504;49.426;2023-05-08T03:51:55;9.70;;;6.43;;
67191;SDS011;54120;53.504;49.426;2023-05-08T03:54:21;5.72;;;3.90;;
67191;SDS011;54120;53.504;49.426;2023-05-08T03:56:52;4.88;;;3.03;;
67191;SDS011;54120;53.504;49.426;2023-05-08T03:59:23;6.63;;;2.58;;
67191;SDS011;54120;53.504;49.426;2023-05-08T04:13:38;3.15;;;1.55;;
67191;SDS011;54120;53.504;49.426;2023-05-08T04:16:19;3.65;;;1.30;;
67191;SDS011;54120;53.504;49.426;2023-05-08T04:18:58;4.80;;;1.50;;
67191;SDS011;54120;53.504;49.426;2023-05-08T04:21:28;2.53;;;1.60;;
67191;SDS011;54120;53.504;49.426;2023-05-08T04:24:07;1.98;;;1.33;;
67191;SDS011;54120;53.504;49.426;2023-05-08T04:29:45;2.47;;;1.33;;
67191;SDS011;54120;53.504;49.426;2023-05-08T04:35:17;1.73;;;1.60;;
67191;SDS011;54120;53.504;49.426;2023-05-08T04:37:43;4.90;;;2.22;;
67191;SDS011;54120;53.504;49.426;2023-05-08T04:40:10;3.08;;;1.60;;
67191;SDS011;54120;53.504;49.426;2023-05-08T04:42:36;4.32;;;1.55;;
67191;SDS011;54120;53.504;49.426;2023-05-08T04:45:04;2.08;;;1.30;;
67191;SDS011;54120;53.504;49.426;2023-05-08T04:47:31;4.20;;;2.63;;
67191;SDS011;54120;53.504;49.426;2023-05-08T04:49:57;1.70;;;1.60;;
67191;SDS011;54120;53.504;49.426;2023-05-08T04:52:23;1.40;;;1.30;;
67191;SDS011;54120;53.504;49.426;2023-05-08T04:54:57;2.78;;;1.40;;
67191;SDS011;54120;53.504;49.426;2023-05-08T04:57:23;3.15;;;1.40;;
67191;SDS011;54120;53.504;49.426;2023-05-08T04:59:53;3.97;;;1.50;;
67191;SDS011;54120;53.504;49.426;2023-05-08T05:02:24;1.65;;;1.55;;
67191;SDS011;54120;53.504;49.426;2023-05-08T05:04:50;2.25;;;1.58;;
67191;SDS011;54120;53.504;49.426;2023-05-08T05:10:00;5.38;;;1.63;;
67191;SDS011;54120;53.504;49.426;2023-05-08T05:12:30;2.58;;;1.60;;
67191;SDS011;54120;53.504;49.426;2023-05-08T05:15:03;3.17;;;1.70;;
67191;SDS011;54120;53.504;49.426;2023-05-08T05:20:45;2.97;;;1.40;;
67191;SDS011;54120;53.504;49.426;2023-05-08T05:23:23;2.50;;;1.50;;
67191;SDS011;54120;53.504;49.426;2023-05-08T05:25:49;2.08;;;1.45;;
67191;SDS011;54120;53.504;49.426;2023-05-08T05:28:15;1.55;;;1.45;;
67191;SDS011;54120;53.504;49.426;2023-05-08T05:30:41;2.13;;;1.70;;
67191;SDS011;54120;53.504;49.426;2023-05-08T05:33:07;1.70;;;1.58;;
67191;SDS011;54120;53.504;49.426;2023-05-08T05:35:33;3.95;;;1.48;;
67191;SDS011;54120;53.504;49.426;2023-05-08T05:37:59;2.25;;;1.20;;
67191;SDS011;54120;53.504;49.426;2023-05-08T05:40:26;3.13;;;1.52;;
67191;SDS011;54120;53.504;49.426;2023-05-08T05:42:52;1.85;;;1.35;;
67191;SDS011;54120;53.504;49.426;2023-05-08T05:45:18;1.30;;;1.15;;
67191;SDS011;54120;53.504;49.426;2023-05-08T05:47:44;3.03;;;1.33;;
67191;SDS011;54120;53.504;49.426;2023-05-08T05:50:14;2.10;;;1.48;;
67191;SDS011;54120;53.504;49.426;2023-05-08T05:52:42;2.53;;;1.27;;
67191;SDS011;54120;53.504;49.426;2023-05-08T05:55:08;1.73;;;1.40;;
67191;SDS011;54120;53.504;49.426;2023-05-08T05:57:34;1.45;;;1.15;;
67191;SDS011;54120;53.504;49.426;2023-05-08T06:00:04;1.30;;;1.20;;
67191;SDS011;54120;53.504;49.426;2023-05-08T06:02:32;2.92;;;1.30;;
67191;SDS011;54120;53.504;49.426;2023-05-08T06:05:00;2.53;;;1.73;;
67191;SDS011;54120;53.504;49.426;2023-05-08T06:07:30;3.85;;;1.23;;
67191;SDS011;54120;53.504;49.426;2023-05-08T06:13:19;2.38;;;1.30;;
67191;SDS011;54120;53.504;49.426;2023-05-08T06:18:48;1.15;;;1.15;;
67191;SDS011;54120;53.504;49.426;2023-05-08T06:21:23;2.33;;;1.35;;
67191;SDS011;54120;53.504;49.426;2023-05-08T06:26:48;4.55;;;1.35;;
67191;SDS011;54120;53.504;49.426;2023-05-08T06:35:03;1.60;;;1.30;;
67191;SDS011;54120;53.504;49.426;2023-05-08T06:37:30;3.17;;;1.20;;
67191;SDS011;54120;53.504;49.426;2023-05-08T06:39:56;1.30;;;1.20;;
67191;SDS011;54120;53.504;49.426;2023-05-08T06:47:44;0.90;;;0.90;;
67191;SDS011;54120;53.504;49.426;2023-05-08T06:50:10;3.75;;;1.30;;
67191;SDS011;54120;53.504;49.426;2023-05-08T06:52:36;2.65;;;1.30;;
67191;SDS011;54120;53.504;49.426;2023-05-08T06:55:02;1.17;;;1.17;;
67191;SDS011;54120;53.504;49.426;2023-05-08T06:57:28;1.73;;;1.30;;
67191;SDS011;54120;53.504;49.426;2023-05-08T07:05:55;5.75;;;1.10;;
67191;SDS011;54120;53.504;49.426;2023-05-08T07:16:37;2.08;;;1.40;;
67191;SDS011;54120;53.504;49.426;2023-05-08T07:19:04;5.10;;;1.30;;
67191;SDS011;54120;53.504;49.426;2023-05-08T07:21:30;6.00;;;1.48;;
67191;SDS011;54120;53.504;49.426;2023-05-08T07:23:56;2.35;;;1.20;;
67191;SDS011;54120;53.504;49.426;2023-05-08T07:26:22;1.30;;;1.20;;
67191;SDS011;54120;53.504;49.426;2023-05-08T07:31:25;1.23;;;1.10;;
67191;SDS011;54120;53.504;49.426;2023-05-08T07:33:51;5.00;;;1.50;;
67191;SDS011;54120;53.504;49.426;2023-05-08T07:36:17;2.08;;;1.55;;
67191;SDS011;54120;53.504;49.426;2023-05-08T07:41:19;1.17;;;1.17;;
67191;SDS011;54120;53.504;49.426;2023-05-08T07:52:57;1.80;;;1.35;;
67191;SDS011;54120;53.504;49.426;2023-05-08T07:55:23;3.63;;;1.58;;
67191;SDS011;54120;53.504;49.426;2023-05-08T08:00:31;1.55;;;1.45;;
67191;SDS011;54120;53.504;49.426;2023-05-08T08:03:05;2.70;;;1.50;;
67191;SDS011;54120;53.504;49.426;2023-05-08T08:05:35;1.92;;;1.40;;
67191;SDS011;54120;53.504;49.426;2023-05-08T08:08:09;2.35;;;1.73;;
67191;SDS011;54120;53.504;49.426;2023-05-08T08:10:42;1.98;;;1.27;;
67191;SDS011;54120;53.504;49.426;2023-05-08T08:18:34;2.13;;;1.40;;
67191;SDS011;54120;53.504;49.426;2023-05-08T08:21:10;1.70;;;1.60;;
67191;SDS011;54120;53.504;49.426;2023-05-08T08:26:34;3.90;;;1.40;;
67191;SDS011;54120;53.504;49.426;2023-05-08T08:29:11;1.98;;;1.50;;
67191;SDS011;54120;53.504;49.426;2023-05-08T08:34:34;2.60;;;1.55;;
67191;SDS011;54120;53.504;49.426;2023-05-08T08:37:08;1.35;;;1.25;;
67191;SDS011;54120;53.504;49.426;2023-05-08T08:39:42;1.73;;;1.30;;
67191;SDS011;54120;53.504;49.426;2023-05-08T08:44:57;3.42;;;1.50;;
67191;SDS011;54120;53.504;49.426;2023-05-08T08:47:27;6.75;;;1.50;;
67191;SDS011;54120;53.504;49.426;2023-05-08T08:50:07;2.65;;;1.55;;
67191;SDS011;54120;53.504;49.426;2023-05-08T08:52:55;2.00;;;1.20;;
67191;SDS011;54120;53.504;49.426;2023-05-08T08:55:25;2.45;;;1.40;;
67191;SDS011;54120;53.504;49.426;2023-05-08T09:03:44;1.85;;;1.38;;
67191;SDS011;54120;53.504;49.426;2023-05-08T09:11:59;1.38;;;1.30;;
67191;SDS011;54120;53.504;49.426;2023-05-08T09:14:27;2.97;;;1.63;;
67191;SDS011;54120;53.504;49.426;2023-05-08T09:16:57;6.03;;;1.90;;
67191;SDS011;54120;53.504;49.426;2023-05-08T09:19:30;1.48;;;1.38;;
67191;SDS011;54120;53.504;49.426;2023-05-08T09:22:02;2.22;;;1.50;;
67191;SDS011;54120;53.504;49.426;2023-05-08T09:27:26;3.20;;;1.30;;
67191;SDS011;54120;53.504;49.426;2023-05-08T09:30:04;2.03;;;1.40;;
67191;SDS011;54120;53.504;49.426;2023-05-08T09:38:31;4.80;;;1.40;;
67191;SDS011;54120;53.504;49.426;2023-05-08T09:41:13;1.65;;;1.42;;
67191;SDS011;54120;53.504;49.426;2023-05-08T09:46:20;3.58;;;1.60;;
67191;SDS011;54120;53.504;49.426;2023-05-08T09:48:49;5.00;;;1.65;;
67191;SDS011;54120;53.504;49.426;2023-05-08T09:51:17;2.95;;;1.40;;
67191;SDS011;54120;53.504;49.426;2023-05-08T09:53:44;1.55;;;1.40;;
67191;SDS011;54120;53.504;49.426;2023-05-08T09:58:42;4.13;;;1.33;;
67191;SDS011;54120;53.504;49.426;2023-05-08T10:06:25;2.15;;;1.40;;
67191;SDS011;54120;53.504;49.426;2023-05-08T10:11:32;1.60;;;1.48;;
67191;SDS011;54120;53.504;49.426;2023-05-08T10:13:58;1.75;;;1.55;;
67191;SDS011;54120;53.504;49.426;2023-05-08T10:16:25;1.77;;;1.67;;
67191;SDS011;54120;53.504;49.426;2023-05-08T10:18:58;3.83;;;1.65;;
67191;SDS011;54120;53.504;49.426;2023-05-08T10:21:30;1.80;;;1.70;;
67191;SDS011;54120;53.504;49.426;2023-05-08T10:24:03;1.65;;;1.55;;
67191;SDS011;54120;53.504;49.426;2023-05-08T10:26:33;2.95;;;1.40;;
67191;SDS011;54120;53.504;49.426;2023-05-08T10:29:06;1.92;;;1.50;;
67191;SDS011;54120;53.504;49.426;2023-05-08T10:31:34;2.45;;;1.67;;
67191;SDS011;54120;53.504;49.426;2023-05-08T10:34:04;3.90;;;1.65;;
67191;SDS011;54120;53.504;49.426;2023-05-08T10:36:31;5.03;;;1.65;;
67191;SDS011;54120;53.504;49.426;2023-05-08T10:38:59;2.13;;;1.67;;
67191;SDS011;54120;53.504;49.426;2023-05-08T10:41:26;5.38;;;1.73;;
67191;SDS011;54120;53.504;49.426;2023-05-08T10:43:53;3.45;;;1.42;;
67191;SDS011;54120;53.504;49.426;2023-05-08T10:46:32;1.52;;;1.42;;
67191;SDS011;54120;53.504;49.426;2023-05-08T10:57:09;2.17;;;1.60;;
67191;SDS011;54120;53.504;49.426;2023-05-08T10:59:37;5.45;;;1.52;;
67191;SDS011;54120;53.504;49.426;2023-05-08T11:02:04;1.25;;;1.25;;
67191;SDS011;54120;53.504;49.426;2023-05-08T11:04:33;3.58;;;1.40;;
67191;SDS011;54120;53.504;49.426;2023-05-08T11:07:00;1.98;;;1.50;;
67191;SDS011;54120;53.504;49.426;2023-05-08T11:12:22;1.67;;;1.50;;
67191;SDS011;54120;53.504;49.426;2023-05-08T11:15:01;1.50;;;1.40;;
67191;SDS011;54120;53.504;49.426;2023-05-08T11:17:31;2.42;;;1.20;;
67191;SDS011;54120;53.504;49.426;2023-05-08T11:20:00;2.25;;;1.40;;
67191;SDS011;54120;53.504;49.426;2023-05-08T11:22:35;2.08;;;1.52;;
67191;SDS011;54120;53.504;49.426;2023-05-08T11:25:10;1.58;;;1.48;;
67191;SDS011;54120;53.504;49.426;2023-05-08T11:27:38;1.60;;;1.50;;
67191;SDS011;54120;53.504;49.426;2023-05-08T11:30:21;1.40;;;1.30;;
67191;SDS011;54120;53.504;49.426;2023-05-08T11:35:49;3.85;;;1.27;;
67191;SDS011;54120;53.504;49.426;2023-05-08T11:38:41;6.82;;;3.90;;
67191;SDS011;54120;53.504;49.426;2023-05-08T11:41:10;3.53;;;1.83;;
67191;SDS011;54120;53.504;49.426;2023-05-08T11:43:42;4.20;;;1.80;;
67191;SDS011;54120;53.504;49.426;2023-05-08T11:46:13;2.28;;;1.70;;
67191;SDS011;54120;53.504;49.426;2023-05-08T11:48:42;4.30;;;1.60;;
67191;SDS011;54120;53.504;49.426;2023-05-08T11:51:11;2.13;;;1.52;;
67191;SDS011;54120;53.504;49.426;2023-05-08T11:53:38;2.00;;;1.52;;
67191;SDS011;54120;53.504;49.426;2023-05-08T11:56:05;4.68;;;1.88;;
67191;SDS011;54120;53.504;49.426;2023-05-08T11:58:32;2.10;;;1.65;;
67191;SDS011;54120;53.504;49.426;2023-05-08T12:00:59;2.67;;;1.60;;
67191;SDS011;54120;53.504;49.426;2023-05-08T12:03:26;2.72;;;1.90;;
67191;SDS011;54120;53.504;49.426;2023-05-08T12:05:56;6.75;;;1.40;;
67191;SDS011;54120;53.504;49.426;2023-05-08T12:08:25;1.60;;;1.50;;
67191;SDS011;54120;53.504;49.426;2023-05-08T12:10:52;2.97;;;1.40;;
67191;SDS011;54120;53.504;49.426;2023-05-08T12:13:26;1.77;;;1.67;;
67191;SDS011;54120;53.504;49.426;2023-05-08T12:15:58;1.40;;;1.30;;
67191;SDS011;54120;53.504;49.426;2023-05-08T12:18:25;1.30;;;1.20;;
67191;SDS011;54120;53.504;49.426;2023-05-08T12:20:57;3.33;;;1.40;;
67191;SDS011;54120;53.504;49.426;2023-05-08T12:23:27;5.07;;;1.40;;
67191;SDS011;54120;53.504;49.426;2023-05-08T12:25:58;2.08;;;1.40;;
67191;SDS011;54120;53.504;49.426;2023-05-08T12:28:25;2.38;;;1.70;;
67191;SDS011;54120;53.504;49.426;2023-05-08T12:31:00;4.80;;;1.67;;
67191;SDS011;54120;53.504;49.426;2023-05-08T12:33:26;1.50;;;1.40;;
67191;SDS011;54120;53.504;49.426;2023-05-08T12:35:54;2.22;;;1.60;;
67191;SDS011;54120;53.504;49.426;2023-05-08T12:38:26;2.65;;;1.70;;
67191;SDS011;54120;53.504;49.426;2023-05-08T12:40:54;3.30;;;1.70;;
67191;SDS011;54120;53.504;49.426;2023-05-08T12:43:31;1.48;;;1.38;;
67191;SDS011;54120;53.504;49.426;2023-05-08T12:46:00;1.42;;;1.33;;
67191;SDS011;54120;53.504;49.426;2023-05-08T12:48:29;2.42;;;1.70;;
67191;SDS011;54120;53.504;49.426;2023-05-08T12:51:01;7.28;;;2.03;;
67191;SDS011;54120;53.504;49.426;2023-05-08T12:53:30;3.20;;;1.70;;
67191;SDS011;54120;53.504;49.426;2023-05-08T12:56:02;6.05;;;1.90;;
67191;SDS011;54120;53.504;49.426;2023-05-08T12:58:31;4.13;;;2.08;;
67191;SDS011;54120;53.504;49.426;2023-05-08T13:01:09;4.60;;;1.95;;
67191;SDS011;54120;53.504;49.426;2023-05-08T13:03:39;5.82;;;1.98;;
67191;SDS011;54120;53.504;49.426;2023-05-08T13:06:06;2.80;;;1.70;;
67191;SDS011;54120;53.504;49.426;2023-05-08T13:08:51;5.30;;;2.38;;
67191;SDS011;54120;53.504;49.426;2023-05-08T13:11:32;6.68;;;4.50;;
67191;SDS011;54120;53.504;49.426;2023-05-08T13:13:59;4.15;;;1.40;;
67191;SDS011;54120;53.504;49.426;2023-05-08T13:16:26;2.65;;;1.40;;
67191;SDS011;54120;53.504;49.426;2023-05-08T13:18:53;4.35;;;1.80;;
67191;SDS011;54120;53.504;49.426;2023-05-08T13:21:19;2.60;;;1.67;;
67191;SDS011;54120;53.504;49.426;2023-05-08T13:23:46;2.17;;;1.65;;
67191;SDS011;54120;53.504;49.426;2023-05-08T13:26:13;1.83;;;1.65;;
67191;SDS011;54120;53.504;49.426;2023-05-08T13:28:40;2.25;;;1.80;;
67191;SDS011;54120;53.504;49.426;2023-05-08T13:31:07;4.63;;;1.70;;
67191;SDS011;54120;53.504;49.426;2023-05-08T13:33:34;1.75;;;1.65;;
67191;SDS011;54120;53.504;49.426;2023-05-08T13:36:00;2.10;;;1.77;;
67191;SDS011;54120;53.504;49.426;2023-05-08T13:38:27;2.00;;;1.73;;
67191;SDS011;54120;53.504;49.426;2023-05-08T13:40:54;9.10;;;2.15;;
67191;SDS011;54120;53.504;49.426;2023-05-08T13:43:21;3.22;;;2.13;;
67191;SDS011;54120;53.504;49.426;2023-05-08T13:45:49;7.32;;;4.38;;
67191;SDS011;54120;53.504;49.426;2023-05-08T13:48:18;6.55;;;4.50;;
67191;SDS011;54120;53.504;49.426;2023-05-08T13:50:44;5.85;;;3.30;;
67191;SDS011;54120;53.504;49.426;2023-05-08T13:53:11;6.80;;;2.17;;
67191;SDS011;54120;53.504;49.426;2023-05-08T13:55:38;3.78;;;2.05;;
67191;SDS011;54120;53.504;49.426;2023-05-08T13:58:07;2.42;;;2.00;;
67191;SDS011;54120;53.504;49.426;2023-05-08T14:03:34;6.28;;;3.90;;
67191;SDS011;54120;53.504;49.426;2023-05-08T14:06:03;5.30;;;3.30;;
67191;SDS011;54120;53.504;49.426;2023-05-08T14:08:33;2.95;;;2.40;;
67191;SDS011;54120;53.504;49.426;2023-05-08T14:11:00;4.30;;;2.63;;
67191;SDS011;54120;53.504;49.426;2023-05-08T14:13:29;3.75;;;2.60;;
67191;SDS011;54120;53.504;49.426;2023-05-08T14:15:58;6.65;;;4.13;;
67191;SDS011;54120;53.504;49.426;2023-05-08T14:18:26;4.70;;;3.28;;
67191;SDS011;54120;53.504;49.426;2023-05-08T14:20:52;2.45;;;2.25;;
67191;SDS011;54120;53.504;49.426;2023-05-08T14:23:21;3.38;;;2.42;;
67191;SDS011;54120;53.504;49.426;2023-05-08T14:25:47;2.67;;;2.15;;
67191;SDS011;54120;53.504;49.426;2023-05-08T14:28:16;3.20;;;1.92;;
67191;SDS011;54120;53.504;49.426;2023-05-08T14:30:43;2.53;;;1.70;;
67191;SDS011;54120;53.504;49.426;2023-05-08T14:33:11;3.40;;;1.90;;
67191;SDS011;54120;53.504;49.426;2023-05-08T14:35:41;2.92;;;1.73;;
67191;SDS011;54120;53.504;49.426;2023-05-08T14:38:11;5.40;;;2.80;;
67191;SDS011;54120;53.504;49.426;2023-05-08T14:40:38;2.88;;;2.00;;
67191;SDS011;54120;53.504;49.426;2023-05-08T14:43:06;2.08;;;1.73;;
67191;SDS011;54120;53.504;49.426;2023-05-08T14:45:34;2.45;;;1.80;;
67191;SDS011;54120;53.504;49.426;2023-05-08T14:48:01;2.65;;;1.60;;
67191;SDS011;54120;53.504;49.426;2023-05-08T14:50:28;4.40;;;1.63;;
67191;SDS011;54120;53.504;49.426;2023-05-08T14:52:57;9.48;;;2.28;;
67191;SDS011;54120;53.504;49.426;2023-05-08T14:55:25;2.72;;;2.10;;
67191;SDS011;54120;53.504;49.426;2023-05-08T14:57:52;5.63;;;1.80;;
67191;SDS011;54120;53.504;49.426;2023-05-08T15:00:21;2.08;;;1.85;;
67191;SDS011;54120;53.504;49.426;2023-05-08T15:02:48;2.08;;;1.75;;
67191;SDS011;54120;53.504;49.426;2023-05-08T15:05:15;3.05;;;1.98;;
67191;SDS011;54120;53.504;49.426;2023-05-08T15:07:45;4.30;;;1.90;;
67191;SDS011;54120;53.504;49.426;2023-05-08T15:10:14;3.95;;;2.17;;
67191;SDS011;54120;53.504;49.426;2023-05-08T15:16:17;2.33;;;1.90;;
67191;SDS011;54120;53.504;49.426;2023-05-08T15:18:44;2.28;;;1.70;;
67191;SDS011;54120;53.504;49.426;2023-05-08T15:21:11;2.25;;;1.88;;
67191;SDS011;54120;53.504;49.426;2023-05-08T15:23:40;4.60;;;2.47;;
67191;SDS011;54120;53.504;49.426;2023-05-08T15:26:07;3.45;;;2.10;;
67191;SDS011;54120;53.504;49.426;2023-05-08T15:28:33;4.38;;;1.92;;
67191;SDS011;54120;53.504;49.426;2023-05-08T15:31:02;2.92;;;2.30;;
67191;SDS011;54120;53.504;49.426;2023-05-08T15:33:30;5.65;;;2.58;;
67191;SDS011;54120;53.504;49.426;2023-05-08T15:35:56;3.25;;;2.03;;
67191;SDS011;54120;53.504;49.426;2023-05-08T15:38:23;3.83;;;2.00;;
67191;SDS011;54120;53.504;49.426;2023-05-08T15:40:52;4.85;;;2.00;;
67191;SDS011;54120;53.504;49.426;2023-05-08T15:43:20;11.90;;;2.67;;
67191;SDS011;54120;53.504;49.426;2023-05-08T15:45:55;5.07;;;2.97;;
67191;SDS011;54120;53.504;49.426;2023-05-08T15:48:24;7.20;;;3.30;;
67191;SDS011;54120;53.504;49.426;2023-05-08T15:50:51;6.72;;;3.38;;
67191;SDS011;54120;53.504;49.426;2023-05-08T15:53:18;8.10;;;4.03;;
67191;SDS011;54120;53.504;49.426;2023-05-08T15:55:45;4.13;;;2.97;;
67191;SDS011;54120;53.504;49.426;2023-05-08T15:58:17;5.53;;;2.88;;
67191;SDS011;54120;53.504;49.426;2023-05-08T16:00:52;4.63;;;2.70;;
67191;SDS011;54120;53.504;49.426;2023-05-08T16:03:18;7.20;;;2.25;;
67191;SDS011;54120;53.504;49.426;2023-05-08T16:05:44;5.05;;;2.60;;
67191;SDS011;54120;53.504;49.426;2023-05-08T16:08:10;7.88;;;2.90;;
67191;SDS011;54120;53.504;49.426;2023-05-08T16:10:38;3.97;;;2.90;;
67191;SDS011;54120;53.504;49.426;2023-05-08T16:13:05;7.97;;;3.90;;
67191;SDS011;54120;53.504;49.426;2023-05-08T16:15:34;8.00;;;4.32;;
67191;SDS011;54120;53.504;49.426;2023-05-08T16:18:04;5.68;;;3.75;;
67191;SDS011;54120;53.504;49.426;2023-05-08T16:20:32;4.75;;;2.60;;
67191;SDS011;54120;53.504;49.426;2023-05-08T16:23:00;3.33;;;2.63;;
67191;SDS011;54120;53.504;49.426;2023-05-08T16:25:27;3.22;;;2.28;;
67191;SDS011;54120;53.504;49.426;2023-05-08T16:27:53;3.63;;;2.10;;
67191;SDS011;54120;53.504;49.426;2023-05-08T16:30:21;3.13;;;2.13;;
67191;SDS011;54120;53.504;49.426;2023-05-08T16:32:49;3.05;;;2.10;;
67191;SDS011;54120;53.504;49.426;2023-05-08T16:35:17;2.83;;;1.90;;
67191;SDS011;54120;53.504;49.426;2023-05-08T16:37:45;3.35;;;2.10;;
67191;SDS011;54120;53.504;49.426;2023-05-08T16:40:13;3.13;;;2.45;;
67191;SDS011;54120;53.504;49.426;2023-05-08T16:42:39;3.47;;;2.20;;
67191;SDS011;54120;53.504;49.426;2023-05-08T16:45:07;3.10;;;2.30;;
67191;SDS011;54120;53.504;49.426;2023-05-08T16:47:40;4.30;;;2.65;;
67191;SDS011;54120;53.504;49.426;2023-05-08T16:50:08;2.50;;;2.22;;
67191;SDS011;54120;53.504;49.426;2023-05-08T16:52:38;5.53;;;2.75;;
67191;SDS011;54120;53.504;49.426;2023-05-08T16:55:05;4.05;;;2.30;;
67191;SDS011;54120;53.504;49.426;2023-05-08T16:57:33;3.60;;;2.40;;
67191;SDS011;54120;53.504;49.426;2023-05-08T16:59:59;3.65;;;2.47;;
67191;SDS011;54120;53.504;49.426;2023-05-08T17:02:27;4.18;;;2.45;;
67191;SDS011;54120;53.504;49.426;2023-05-08T17:04:54;4.80;;;2.72;;
67191;SDS011;54120;53.504;49.426;2023-05-08T17:07:22;6.53;;;2.65;;
67191;SDS011;54120;53.504;49.426;2023-05-08T17:09:48;5.43;;;2.70;;
67191;SDS011;54120;53.504;49.426;2023-05-08T17:12:19;6.63;;;2.78;;
67191;SDS011;54120;53.504;49.426;2023-05-08T17:14:46;9.30;;;3.05;;
67191;SDS011;54120;53.504;49.426;2023-05-08T17:17:14;5.80;;;3.17;;
67191;SDS011;54120;53.504;49.426;2023-05-08T17:19:44;5.55;;;3.13;;
67191;SDS011;54120;53.504;49.426;2023-05-08T17:22:12;8.07;;;3.20;;
67191;SDS011;54120;53.504;49.426;2023-05-08T17:24:40;7.85;;;3.20;;
67191;SDS011;54120;53.504;49.426;2023-05-08T17:27:07;8.05;;;3.95;;
67191;SDS011;54120;53.504;49.426;2023-05-08T17:29:34;8.90;;;4.07;;
67191;SDS011;54120;53.504;49.426;2023-05-08T17:32:02;10.68;;;4.30;;
67191;SDS011;54120;53.504;49.426;2023-05-08T17:34:29;11.63;;;4.60;;
67191;SDS011;54120;53.504;49.426;2023-05-08T17:36:57;13.02;;;4.57;;
67191;SDS011;54120;53.504;49.426;2023-05-08T17:39:26;11.65;;;5.03;;
67191;SDS011;54120;53.504;49.426;2023-05-08T17:41:53;15.50;;;5.30;;
67191;SDS011;54120;53.504;49.426;2023-05-08T17:44:23;10.00;;;5.22;;
67191;SDS011;54120;53.504;49.426;2023-05-08T17:46:51;11.48;;;5.28;;
67191;SDS011;54120;53.504;49.426;2023-05-08T17:49:18;9.90;;;4.88;;
67191;SDS011;54120;53.504;49.426;2023-05-08T17:51:47;9.27;;;4.35;;
67191;SDS011;54120;53.504;49.426;2023-05-08T17:54:15;15.15;;;5.20;;
67191;SDS011;54120;53.504;49.426;2023-05-08T17:56:43;12.60;;;4.50;;
67191;SDS011;54120;53.504;49.426;2023-05-08T17:59:09;7.85;;;4.38;;
67191;SDS011;54120;53.504;49.426;2023-05-08T18:01:37;9.02;;;3.90;;
67191;SDS011;54120;53.504;49.426;2023-05-08T18:04:03;4.85;;;3.58;;
67191;SDS011;54120;53.504;49.426;2023-05-08T18:06:31;6.43;;;3.55;;
67191;SDS011;54120;53.504;49.426;2023-05-08T18:08:57;7.15;;;3.15;;
67191;SDS011;54120;53.504;49.426;2023-05-08T18:11:25;7.07;;;3.50;;
67191;SDS011;54120;53.504;49.426;2023-05-08T18:13:52;7.53;;;3.45;;
67191;SDS011;54120;53.504;49.426;2023-05-08T18:16:21;5.32;;;3.17;;
67191;SDS011;54120;53.504;49.426;2023-05-08T18:18:54;4.97;;;3.28;;
67191;SDS011;54120;53.504;49.426;2023-05-08T18:21:21;8.40;;;3.63;;
67191;SDS011;54120;53.504;49.426;2023-05-08T18:23:47;11.45;;;3.25;;
67191;SDS011;54120;53.504;49.426;2023-05-08T18:26:19;4.97;;;3.20;;
67191;SDS011;54120;53.504;49.426;2023-05-08T18:28:46;4.90;;;3.20;;
67191;SDS011;54120;53.504;49.426;2023-05-08T18:31:13;6.32;;;3.35;;
67191;SDS011;54120;53.504;49.426;2023-05-08T18:33:40;6.63;;;3.20;;
67191;SDS011;54120;53.504;49.426;2023-05-08T18:36:09;4.15;;;2.92;;
67191;SDS011;54120;53.504;49.426;2023-05-08T18:38:35;5.30;;;2.67;;
67191;SDS011;54120;53.504;49.426;2023-05-08T18:41:01;5.45;;;2.95;;
67191;SDS011;54120;53.504;49.426;2023-05-08T18:43:30;6.25;;;2.92;;
67191;SDS011;54120;53.504;49.426;2023-05-08T18:45:56;8.05;;;3.17;;
67191;SDS011;54120;53.504;49.426;2023-05-08T18:48:24;5.53;;;3.15;;
67191;SDS011;54120;53.504;49.426;2023-05-08T18:50:51;7.00;;;3.13;;
67191;SDS011;54120;53.504;49.426;2023-05-08T18:56:13;7.72;;;3.08;;
67191;SDS011;54120;53.504;49.426;2023-05-08T18:58:40;3.78;;;2.83;;
67191;SDS011;54120;53.504;49.426;2023-05-08T19:01:06;5.82;;;3.30;;
67191;SDS011;54120;53.504;49.426;2023-05-08T19:03:33;3.40;;;2.40;;